createdAt,value
2023-04-26T00:00:47.390Z,4.04
2023-04-26T00:01:47.367Z,3.44
2023-04-26T00:02:47.477Z,3.63
2023-04-26T00:05:47.462Z,3.28
2023-04-26T00:08:47.417Z,3.30
2023-04-26T00:09:47.436Z,3.71
2023-04-26T00:10:47.435Z,3.48
2023-04-26T00:13:47.411Z,3.68
2023-04-26T00:14:47.432Z,4.29
2023-04-26T00:15:47.431Z,3.78
2023-04-26T00:16:47.501Z,3.82
2023-04-26T00:17:47.550Z,3.65
2023-04-26T00:19:47.466Z,4.05
2023-04-26T00:20:47.504Z,4.30
2023-04-26T00:21:47.411Z,3.34
2023-04-26T00:22:47.453Z,4.16
2023-04-26T00:23:47.407Z,3.69
2023-04-26T00:24:47.509Z,3.78
2023-04-26T00:25:47.463Z,4.13
2023-04-26T00:26:47.420Z,3.39
2023-04-26T00:27:47.504Z,3.72
2023-04-26T00:28:47.452Z,3.70
2023-04-26T00:29:47.444Z,4.03
2023-04-26T00:30:47.491Z,3.66
2023-04-26T00:32:47.577Z,3.80
2023-04-26T00:33:47.488Z,4.51
2023-04-26T00:34:47.459Z,3.83
2023-04-26T00:35:47.486Z,4.00
2023-04-26T00:36:47.511Z,4.40
2023-04-26T00:37:47.456Z,4.56
2023-04-26T00:38:47.504Z,7.36
2023-04-26T00:39:47.506Z,5.63
2023-04-26T00:40:47.481Z,6.11
2023-04-26T00:41:47.497Z,3.95
2023-04-26T00:42:47.476Z,3.80
2023-04-26T00:43:47.499Z,3.98
2023-04-26T00:44:47.512Z,3.77
2023-04-26T00:45:47.504Z,3.65
2023-04-26T00:46:47.517Z,3.81
2023-04-26T00:48:47.506Z,4.38
2023-04-26T00:49:47.502Z,4.19
2023-04-26T00:50:47.479Z,4.14
2023-04-26T00:51:47.505Z,4.27
2023-04-26T00:52:47.499Z,4.11
2023-04-26T00:53:47.526Z,3.88
2023-04-26T00:54:47.537Z,3.99
2023-04-26T00:55:47.518Z,4.10
2023-04-26T00:56:47.542Z,4.13
2023-04-26T00:58:47.513Z,4.43
2023-04-26T00:59:47.569Z,4.45
2023-04-26T01:00:47.636Z,3.99
2023-04-26T01:03:47.819Z,3.49
2023-04-26T01:05:47.559Z,4.32
2023-04-26T01:06:47.507Z,4.26
2023-04-26T01:07:47.529Z,4.31
2023-04-26T01:08:47.524Z,4.72
2023-04-26T01:09:47.592Z,4.06
2023-04-26T01:10:47.595Z,4.38
2023-04-26T01:11:47.557Z,4.18
2023-04-26T01:12:47.576Z,4.04
2023-04-26T01:13:47.547Z,4.23
2023-04-26T01:14:47.560Z,5.29
2023-04-26T01:15:47.612Z,9.59
2023-04-26T01:16:47.619Z,16.67
2023-04-26T01:18:47.587Z,6.93
2023-04-26T01:19:47.632Z,5.60
2023-04-26T01:20:47.596Z,4.52
2023-04-26T01:21:47.559Z,4.73
2023-04-26T01:22:47.599Z,4.58
2023-04-26T01:23:47.615Z,4.55
2023-04-26T01:24:47.569Z,3.97
2023-04-26T01:26:47.637Z,4.41
2023-04-26T01:27:47.613Z,4.46
2023-04-26T01:28:47.631Z,4.45
2023-04-26T01:29:47.620Z,4.64
2023-04-26T01:30:47.674Z,4.19
2023-04-26T01:31:47.630Z,3.31
2023-04-26T01:32:47.675Z,3.88
2023-04-26T01:33:47.640Z,3.93
2023-04-26T01:34:47.611Z,3.44
2023-04-26T01:35:47.617Z,3.34
2023-04-26T01:36:47.593Z,4.08
2023-04-26T01:37:47.630Z,4.04
2023-04-26T01:38:47.640Z,3.34
2023-04-26T01:39:47.642Z,3.49
2023-04-26T01:40:47.676Z,4.08
2023-04-26T01:41:47.636Z,4.12
2023-04-26T01:43:47.692Z,4.34
2023-04-26T01:44:47.677Z,4.31
2023-04-26T01:45:47.649Z,4.15
2023-04-26T01:47:47.734Z,4.26
2023-04-26T01:48:47.627Z,4.54
2023-04-26T01:49:47.720Z,4.22
2023-04-26T01:50:47.634Z,4.77
2023-04-26T01:51:47.694Z,4.26
2023-04-26T01:52:47.687Z,4.46
2023-04-26T01:53:47.715Z,4.64
2023-04-26T01:54:47.718Z,4.40
2023-04-26T01:55:47.643Z,4.55
2023-04-26T01:57:47.714Z,4.85
2023-04-26T01:58:47.708Z,4.53
2023-04-26T01:59:47.683Z,4.33
2023-04-26T02:00:47.691Z,4.74
2023-04-26T02:02:47.778Z,4.01
2023-04-26T02:03:47.695Z,4.46
2023-04-26T02:04:47.738Z,4.77
2023-04-26T02:05:47.681Z,4.52
2023-04-26T02:06:47.672Z,3.88
2023-04-26T02:07:47.709Z,4.70
2023-04-26T02:08:47.726Z,3.59
2023-04-26T02:09:47.724Z,4.27
2023-04-26T02:10:47.746Z,4.64
2023-04-26T02:12:47.745Z,4.05
2023-04-26T02:13:47.719Z,3.94
2023-04-26T02:14:47.700Z,4.31
2023-04-26T02:15:47.776Z,4.15
2023-04-26T02:16:47.687Z,4.33
2023-04-26T02:17:47.774Z,4.67
2023-04-26T02:18:47.716Z,4.69
2023-04-26T02:19:47.733Z,4.82
2023-04-26T02:21:47.709Z,5.05
2023-04-26T02:22:47.759Z,5.31
2023-04-26T02:23:47.715Z,8.62
2023-04-26T02:24:47.728Z,7.91
2023-04-26T02:25:47.791Z,10.03
2023-04-26T02:26:47.734Z,10.54
2023-04-26T02:27:47.749Z,7.52
2023-04-26T02:28:47.778Z,7.39
2023-04-26T02:29:47.776Z,6.33
2023-04-26T02:30:47.809Z,5.12
2023-04-26T02:31:47.796Z,4.37
2023-04-26T02:32:47.771Z,4.61
2023-04-26T02:33:47.766Z,5.10
2023-04-26T02:35:47.798Z,4.40
2023-04-26T02:36:47.816Z,4.68
2023-04-26T02:40:47.757Z,4.50
2023-04-26T02:41:47.810Z,5.02
2023-04-26T02:43:47.796Z,4.10
2023-04-26T02:44:47.835Z,5.05
2023-04-26T02:47:47.898Z,4.27
2023-04-26T02:48:47.838Z,4.41
2023-04-26T02:49:47.795Z,4.61
2023-04-26T02:51:47.833Z,4.95
2023-04-26T02:52:47.817Z,5.09
2023-04-26T02:53:47.832Z,4.56
2023-04-26T02:54:47.821Z,4.67
2023-04-26T02:55:47.863Z,4.41
2023-04-26T02:56:47.859Z,4.49
2023-04-26T02:57:47.854Z,4.46
2023-04-26T02:58:47.816Z,4.75
2023-04-26T03:00:47.916Z,4.62
2023-04-26T03:01:47.837Z,5.29
2023-04-26T03:02:47.950Z,4.18
2023-04-26T03:03:47.961Z,4.39
2023-04-26T03:05:47.871Z,4.95
2023-04-26T03:07:47.839Z,4.01
2023-04-26T03:08:47.854Z,4.28
2023-04-26T03:09:47.848Z,4.26
2023-04-26T03:11:50.023Z,4.01
2023-04-26T03:12:47.904Z,4.35
2023-04-26T03:14:47.851Z,4.35
2023-04-26T03:15:47.827Z,4.97
2023-04-26T03:16:47.985Z,4.54
2023-04-26T03:17:47.915Z,4.80
2023-04-26T03:18:47.910Z,4.49
2023-04-26T03:19:47.861Z,4.36
2023-04-26T03:21:47.905Z,4.57
2023-04-26T03:22:47.995Z,4.45
2023-04-26T03:23:47.934Z,4.85
2023-04-26T03:24:47.882Z,4.71
2023-04-26T03:25:47.867Z,4.64
2023-04-26T03:26:47.914Z,4.91
2023-04-26T03:27:47.876Z,4.43
2023-04-26T03:29:47.952Z,4.95
2023-04-26T03:30:47.999Z,4.43
2023-04-26T03:31:47.930Z,4.68
2023-04-26T03:32:48.000Z,4.86
2023-04-26T03:34:47.971Z,4.69
2023-04-26T03:36:48.049Z,4.30
2023-04-26T03:38:47.939Z,5.06
2023-04-26T03:40:47.927Z,4.72
2023-04-26T03:42:47.945Z,4.83
2023-04-26T03:43:47.946Z,4.37
2023-04-26T03:45:47.968Z,4.62
2023-04-26T03:46:48.022Z,5.01
2023-04-26T03:47:47.934Z,4.89
2023-04-26T03:49:47.965Z,4.44
2023-04-26T03:51:47.982Z,4.20
2023-04-26T03:52:47.991Z,5.51
2023-04-26T03:54:47.952Z,4.79
2023-04-26T03:55:47.984Z,5.24
2023-04-26T03:56:47.931Z,5.45
2023-04-26T03:57:47.983Z,5.45
2023-04-26T03:58:47.976Z,5.15
2023-04-26T04:00:48.015Z,5.02
2023-04-26T04:01:47.987Z,5.71
2023-04-26T04:02:48.148Z,4.79
2023-04-26T04:03:48.137Z,4.94
2023-04-26T04:05:48.030Z,5.66
2023-04-26T04:06:48.057Z,5.56
2023-04-26T04:07:48.002Z,5.82
2023-04-26T04:08:48.042Z,5.05
2023-04-26T04:09:47.972Z,5.21
2023-04-26T04:10:48.041Z,5.82
2023-04-26T04:11:48.000Z,5.53
2023-04-26T04:12:48.031Z,5.13
2023-04-26T04:14:48.023Z,5.15
2023-04-26T04:15:48.072Z,5.42
2023-04-26T04:16:48.022Z,5.73
2023-04-26T04:19:48.043Z,5.27
2023-04-26T04:20:48.028Z,5.51
2023-04-26T04:22:48.009Z,5.97
2023-04-26T04:23:48.077Z,5.67
2023-04-26T04:24:48.100Z,6.50
2023-04-26T04:25:47.994Z,5.46
2023-04-26T04:26:48.048Z,5.78
2023-04-26T04:27:48.044Z,5.71
2023-04-26T04:28:48.097Z,5.86
2023-04-26T04:29:48.090Z,5.94
2023-04-26T04:30:48.052Z,6.12
2023-04-26T04:31:48.073Z,5.94
2023-04-26T04:32:48.130Z,5.95
2023-04-26T04:33:48.054Z,6.13
2023-04-26T04:34:49.583Z,5.69
2023-04-26T04:35:48.069Z,5.78
2023-04-26T04:36:48.074Z,6.43
2023-04-26T04:37:48.036Z,6.82
2023-04-26T04:38:48.071Z,6.08
2023-04-26T04:39:48.054Z,6.52
2023-04-26T04:40:48.104Z,6.67
2023-04-26T04:41:48.230Z,6.00
2023-04-26T04:42:48.134Z,7.05
2023-04-26T04:43:48.058Z,7.36
2023-04-26T04:44:48.118Z,7.33
2023-04-26T04:45:48.089Z,7.23
2023-04-26T04:46:48.076Z,7.16
2023-04-26T04:47:48.124Z,7.81
2023-04-26T04:48:48.086Z,8.21
2023-04-26T04:49:48.163Z,8.66
2023-04-26T04:50:48.056Z,8.07
2023-04-26T04:52:48.155Z,7.79
2023-04-26T04:53:48.077Z,7.64
2023-04-26T04:54:48.093Z,8.19
2023-04-26T04:55:48.144Z,8.08
2023-04-26T04:56:48.100Z,8.10
2023-04-26T04:57:48.120Z,7.72
2023-04-26T04:58:48.170Z,8.59
2023-04-26T04:59:48.114Z,9.12
2023-04-26T05:00:48.180Z,8.72
2023-04-26T05:01:48.251Z,8.45
2023-04-26T05:02:48.272Z,8.90
2023-04-26T05:03:48.299Z,8.23
2023-04-26T05:04:48.185Z,7.80
2023-04-26T05:05:48.166Z,8.56
2023-04-26T05:06:48.176Z,8.65
2023-04-26T05:07:48.116Z,8.38
2023-04-26T05:08:48.173Z,8.56
2023-04-26T05:09:48.177Z,7.64
2023-04-26T05:10:48.163Z,8.16
2023-04-26T05:11:48.130Z,8.72
2023-04-26T05:12:48.151Z,8.10
2023-04-26T05:13:48.938Z,8.03
2023-04-26T05:14:48.163Z,8.55
2023-04-26T05:15:48.170Z,7.55
2023-04-26T05:16:48.347Z,7.73
2023-04-26T05:17:48.206Z,8.35
2023-04-26T05:18:48.183Z,7.68
2023-04-26T05:19:48.218Z,8.29
2023-04-26T05:20:48.241Z,7.79
2023-04-26T05:21:48.177Z,7.83
2023-04-26T05:22:48.210Z,7.57
2023-04-26T05:23:48.207Z,8.32
2023-04-26T05:24:48.194Z,7.79
2023-04-26T05:25:48.149Z,8.83
2023-04-26T05:26:48.197Z,8.33
2023-04-26T05:27:48.234Z,7.94
2023-04-26T05:28:48.180Z,8.60
2023-04-26T05:29:48.198Z,7.68
2023-04-26T05:30:48.197Z,7.93
2023-04-26T05:31:48.226Z,8.03
2023-04-26T05:32:48.307Z,9.21
2023-04-26T05:33:48.191Z,8.61
2023-04-26T05:34:48.224Z,8.03
2023-04-26T05:35:48.230Z,8.98
2023-04-26T05:36:48.250Z,8.32
2023-04-26T05:37:48.241Z,8.65
2023-04-26T05:38:48.215Z,8.71
2023-04-26T05:39:48.252Z,8.96
2023-04-26T05:40:48.257Z,9.26
2023-04-26T05:42:48.251Z,9.20
2023-04-26T05:44:48.292Z,8.91
2023-04-26T05:45:48.304Z,9.28
2023-04-26T05:46:48.221Z,9.35
2023-04-26T05:47:48.281Z,9.68
2023-04-26T05:48:48.256Z,10.09
2023-04-26T05:49:48.223Z,9.58
2023-04-26T05:50:48.261Z,9.57
2023-04-26T05:51:48.296Z,10.62
2023-04-26T05:53:48.290Z,11.27
2023-04-26T05:54:48.235Z,12.65
2023-04-26T05:55:48.280Z,13.27
2023-04-26T05:56:48.225Z,14.73
2023-04-26T05:57:48.282Z,14.98
2023-04-26T05:58:48.277Z,16.34
2023-04-26T05:59:48.266Z,15.79
2023-04-26T06:00:48.333Z,16.24
2023-04-26T06:01:48.345Z,17.62
2023-04-26T06:03:48.557Z,17.92
2023-04-26T06:05:48.476Z,16.95
2023-04-26T06:06:48.320Z,18.09
2023-04-26T06:07:48.274Z,17.83
2023-04-26T06:08:48.296Z,17.46
2023-04-26T06:09:48.249Z,18.72
2023-04-26T06:10:48.307Z,18.21
2023-04-26T06:11:48.323Z,17.85
2023-04-26T06:12:48.280Z,18.28
2023-04-26T06:13:48.286Z,19.69
2023-04-26T06:14:48.312Z,17.99
2023-04-26T06:16:48.373Z,17.99
2023-04-26T06:17:48.410Z,18.43
2023-04-26T06:18:48.379Z,19.34
2023-04-26T06:19:48.371Z,19.49
2023-04-26T06:20:48.276Z,20.28
2023-04-26T06:21:48.352Z,17.83
2023-04-26T06:22:48.368Z,19.21
2023-04-26T06:23:48.297Z,19.06
2023-04-26T06:24:48.357Z,18.47
2023-04-26T06:25:48.344Z,19.60
2023-04-26T06:26:48.294Z,19.16
2023-04-26T06:27:48.375Z,19.49
2023-04-26T06:28:48.331Z,18.82
2023-04-26T06:29:48.376Z,20.03
2023-04-26T06:30:48.394Z,20.37
2023-04-26T06:31:48.364Z,20.80
2023-04-26T06:32:48.648Z,19.56
2023-04-26T06:33:48.337Z,18.64
2023-04-26T06:34:48.354Z,19.30
2023-04-26T06:35:48.325Z,20.15
2023-04-26T06:36:48.350Z,18.04
2023-04-26T06:38:48.381Z,18.90
2023-04-26T06:39:48.399Z,18.25
2023-04-26T06:40:48.369Z,18.21
2023-04-26T06:41:49.236Z,16.60
2023-04-26T06:42:48.407Z,17.00
2023-04-26T06:43:48.356Z,17.97
2023-04-26T06:44:48.348Z,18.29
2023-04-26T06:45:48.406Z,16.22
2023-04-26T06:46:48.497Z,17.79
2023-04-26T06:47:48.428Z,18.54
2023-04-26T06:48:48.405Z,17.59
2023-04-26T06:49:48.406Z,18.18
2023-04-26T06:50:48.414Z,19.58
2023-04-26T06:51:48.436Z,18.66
2023-04-26T06:52:48.393Z,18.79
2023-04-26T06:53:48.766Z,17.84
2023-04-26T06:54:56.489Z,18.29
2023-04-26T06:55:48.432Z,19.18
2023-04-26T06:56:48.417Z,19.53
2023-04-26T06:57:48.413Z,18.25
2023-04-26T06:58:48.456Z,17.75
2023-04-26T06:59:48.428Z,17.93
2023-04-26T07:00:48.448Z,17.61
2023-04-26T07:01:48.483Z,18.54
2023-04-26T07:02:48.608Z,19.13
2023-04-26T07:03:48.556Z,17.60
2023-04-26T07:04:48.598Z,18.10
2023-04-26T07:05:48.433Z,16.70
2023-04-26T07:06:48.483Z,18.37
2023-04-26T07:07:48.416Z,17.96
2023-04-26T07:08:48.434Z,17.36
2023-04-26T07:09:48.496Z,17.09
2023-04-26T07:10:48.483Z,17.71
2023-04-26T07:11:48.454Z,16.07
2023-04-26T07:13:48.437Z,17.47
2023-04-26T07:15:48.650Z,16.54
2023-04-26T07:16:48.442Z,16.04
2023-04-26T07:17:48.553Z,16.28
2023-04-26T07:19:48.496Z,15.75
2023-04-26T07:20:48.509Z,15.27
2023-04-26T07:21:48.507Z,16.21
2023-04-26T07:22:48.518Z,14.45
2023-04-26T07:23:48.460Z,15.28
2023-04-26T07:24:48.483Z,17.52
2023-04-26T07:25:48.500Z,16.47
2023-04-26T07:26:48.481Z,15.79
2023-04-26T07:27:48.489Z,16.53
2023-04-26T07:28:48.484Z,15.88
2023-04-26T07:29:48.700Z,15.50
2023-04-26T07:31:48.462Z,14.92
2023-04-26T07:32:48.575Z,14.60
2023-04-26T07:33:48.566Z,15.26
2023-04-26T07:34:48.504Z,16.57
2023-04-26T07:35:48.534Z,14.60
2023-04-26T07:36:48.549Z,15.61
2023-04-26T07:37:48.525Z,14.61
2023-04-26T07:38:48.514Z,15.45
2023-04-26T07:39:48.495Z,14.84
2023-04-26T07:40:48.543Z,14.72
2023-04-26T07:41:48.518Z,14.01
2023-04-26T07:42:48.495Z,14.51
2023-04-26T07:43:48.529Z,14.44
2023-04-26T07:44:48.521Z,13.75
2023-04-26T07:45:48.549Z,14.37
2023-04-26T07:46:48.499Z,14.15
2023-04-26T07:47:48.540Z,14.52
2023-04-26T07:48:48.527Z,14.08
2023-04-26T07:49:48.518Z,14.51
2023-04-26T07:50:48.580Z,13.04
2023-04-26T07:51:48.556Z,12.10
2023-04-26T07:52:48.528Z,13.30
2023-04-26T07:53:48.550Z,14.27
2023-04-26T07:54:48.596Z,15.95
2023-04-26T07:55:48.527Z,15.11
2023-04-26T07:56:48.547Z,14.55
2023-04-26T07:57:48.589Z,14.70
2023-04-26T07:58:48.587Z,15.60
2023-04-26T07:59:48.535Z,14.76
2023-04-26T08:00:48.537Z,15.15
2023-04-26T08:01:48.577Z,15.62
2023-04-26T08:02:48.756Z,14.91
2023-04-26T08:03:48.919Z,14.10
2023-04-26T08:04:48.979Z,13.12
2023-04-26T08:05:48.929Z,13.59
2023-04-26T08:06:48.603Z,13.05
2023-04-26T08:07:48.566Z,14.25
2023-04-26T08:08:48.595Z,13.48
2023-04-26T08:09:48.624Z,13.29
2023-04-26T08:10:48.576Z,11.87
2023-04-26T08:11:48.602Z,12.85
2023-04-26T08:12:48.560Z,11.95
2023-04-26T08:13:48.594Z,12.36
2023-04-26T08:14:48.635Z,11.92
2023-04-26T08:15:48.618Z,12.15
2023-04-26T08:16:48.623Z,12.56
2023-04-26T08:17:48.636Z,12.20
2023-04-26T08:18:48.675Z,11.47
2023-04-26T08:19:48.639Z,12.97
2023-04-26T08:20:48.651Z,11.67
2023-04-26T08:21:48.843Z,10.38
2023-04-26T08:22:48.650Z,10.72
2023-04-26T08:23:48.650Z,10.99
2023-04-26T08:24:48.676Z,10.39
2023-04-26T08:25:48.655Z,11.64
2023-04-26T08:26:48.637Z,12.57
2023-04-26T08:27:48.641Z,11.85
2023-04-26T08:28:48.673Z,12.79
2023-04-26T08:29:48.612Z,13.08
2023-04-26T08:30:48.686Z,13.62
2023-04-26T08:31:48.645Z,13.51
2023-04-26T08:32:48.693Z,12.36
2023-04-26T08:33:48.653Z,13.81
2023-04-26T08:34:48.666Z,12.06
2023-04-26T08:35:48.682Z,12.07
2023-04-26T08:36:48.698Z,12.82
2023-04-26T08:37:48.623Z,12.55
2023-04-26T08:38:48.662Z,12.52
2023-04-26T08:39:48.708Z,11.96
2023-04-26T08:40:48.658Z,12.59
2023-04-26T08:41:48.680Z,11.87
2023-04-26T08:42:48.674Z,11.88
2023-04-26T08:43:48.713Z,12.59
2023-04-26T08:44:48.685Z,12.53
2023-04-26T08:45:48.698Z,12.22
2023-04-26T08:46:48.816Z,11.28
2023-04-26T08:47:48.884Z,11.29
2023-04-26T08:48:48.691Z,11.55
2023-04-26T08:49:48.708Z,10.72
2023-04-26T08:50:48.671Z,11.32
2023-04-26T08:51:48.733Z,10.68
2023-04-26T08:52:48.743Z,10.30
2023-04-26T08:53:48.739Z,11.04
2023-04-26T08:54:48.734Z,11.13
2023-04-26T08:55:48.697Z,11.03
2023-04-26T08:56:48.743Z,10.99
2023-04-26T08:57:48.744Z,11.76
2023-04-26T08:58:48.726Z,11.17
2023-04-26T08:59:48.849Z,10.65
2023-04-26T09:00:48.699Z,11.27
2023-04-26T09:01:48.753Z,10.15
2023-04-26T09:02:48.881Z,10.60
2023-04-26T09:03:48.905Z,10.45
2023-04-26T09:04:48.788Z,10.46
2023-04-26T09:05:48.723Z,10.18
2023-04-26T09:06:48.689Z,10.08
2023-04-26T09:07:48.742Z,10.28
2023-04-26T09:08:48.708Z,9.54
2023-04-26T09:09:48.729Z,9.65
2023-04-26T09:10:48.794Z,10.40
2023-04-26T09:11:48.762Z,10.12
2023-04-26T09:12:48.778Z,10.42
2023-04-26T09:13:48.804Z,9.94
2023-04-26T09:14:48.793Z,9.83
2023-04-26T09:15:48.898Z,9.25
2023-04-26T09:16:48.754Z,9.71
2023-04-26T09:17:48.805Z,9.88
2023-04-26T09:18:48.798Z,8.71
2023-04-26T09:19:48.745Z,9.21
2023-04-26T09:20:48.765Z,9.90
2023-04-26T09:21:48.812Z,10.17
2023-04-26T09:22:48.732Z,9.97
2023-04-26T09:23:48.798Z,11.54
2023-04-26T09:24:48.774Z,10.46
2023-04-26T09:25:48.784Z,11.20
2023-04-26T09:26:48.780Z,11.21
2023-04-26T09:27:48.789Z,11.16
2023-04-26T09:28:48.830Z,11.98
2023-04-26T09:29:48.778Z,10.26
2023-04-26T09:30:48.815Z,8.30
2023-04-26T09:31:49.993Z,10.05
2023-04-26T09:32:48.826Z,9.64
2023-04-26T09:33:48.785Z,8.77
2023-04-26T09:35:48.797Z,10.05
2023-04-26T09:36:48.835Z,9.58
2023-04-26T09:37:58.454Z,9.13
2023-04-26T09:38:48.847Z,9.20
2023-04-26T09:39:48.819Z,8.80
2023-04-26T09:40:48.805Z,8.40
2023-04-26T09:41:48.858Z,9.59
2023-04-26T09:42:48.848Z,9.20
2023-04-26T09:43:48.822Z,8.84
2023-04-26T09:44:48.835Z,8.64
2023-04-26T09:45:48.830Z,8.76
2023-04-26T09:47:48.842Z,7.88
2023-04-26T09:48:48.840Z,8.72
2023-04-26T09:49:48.905Z,7.51
2023-04-26T09:50:48.847Z,7.87
2023-04-26T09:51:48.840Z,7.89
2023-04-26T09:53:48.840Z,8.56
2023-04-26T09:54:48.883Z,8.29
2023-04-26T09:55:48.860Z,7.89
2023-04-26T09:56:48.850Z,7.98
2023-04-26T09:57:48.836Z,7.94
2023-04-26T09:58:48.857Z,8.27
2023-04-26T09:59:48.882Z,8.02
2023-04-26T10:00:48.911Z,7.78
2023-04-26T10:01:48.842Z,7.65
2023-04-26T10:02:48.956Z,7.17
2023-04-26T10:03:49.144Z,6.83
2023-04-26T10:04:48.998Z,6.68
2023-04-26T10:05:48.884Z,7.17
2023-04-26T10:06:48.903Z,7.14
2023-04-26T10:07:48.937Z,6.78
2023-04-26T10:08:48.885Z,7.14
2023-04-26T10:09:48.926Z,6.76
2023-04-26T10:10:48.852Z,6.97
2023-04-26T10:11:48.924Z,7.41
2023-04-26T10:12:48.901Z,6.93
2023-04-26T10:13:48.934Z,6.80
2023-04-26T10:14:48.894Z,7.49
2023-04-26T10:15:48.939Z,6.76
2023-04-26T10:16:48.966Z,6.43
2023-04-26T10:17:50.701Z,7.25
2023-04-26T10:18:48.943Z,5.73
2023-04-26T10:19:48.906Z,5.55
2023-04-26T10:20:48.960Z,6.35
2023-04-26T10:21:48.900Z,7.34
2023-04-26T10:22:48.931Z,6.36
2023-04-26T10:23:48.937Z,6.31
2023-04-26T10:24:48.942Z,5.62
2023-04-26T10:25:48.962Z,5.63
2023-04-26T10:26:48.999Z,6.41
2023-04-26T10:27:48.926Z,6.87
2023-04-26T10:28:49.797Z,6.69
2023-04-26T10:29:48.958Z,5.98
2023-04-26T10:30:48.935Z,5.76
2023-04-26T10:31:49.001Z,5.73
2023-04-26T10:32:49.006Z,5.02
2023-04-26T10:33:49.011Z,5.39
2023-04-26T10:34:48.955Z,6.33
2023-04-26T10:35:48.951Z,6.16
2023-04-26T10:36:49.015Z,5.59
2023-04-26T10:37:49.000Z,5.64
2023-04-26T10:38:48.935Z,6.27
2023-04-26T10:39:48.980Z,6.10
2023-04-26T10:40:48.970Z,5.34
2023-04-26T10:42:49.031Z,5.78
2023-04-26T10:43:48.951Z,5.70
2023-04-26T10:44:48.979Z,5.97
2023-04-26T10:45:49.044Z,5.78
2023-04-26T10:46:49.012Z,5.54
2023-04-26T10:47:49.058Z,6.05
2023-04-26T10:49:49.032Z,4.79
2023-04-26T10:50:49.001Z,4.81
2023-04-26T10:51:49.007Z,4.75
2023-04-26T10:52:48.977Z,5.01
2023-04-26T10:53:49.059Z,5.05
2023-04-26T10:54:49.000Z,4.42
2023-04-26T10:55:49.035Z,4.50
2023-04-26T10:56:49.027Z,4.81
2023-04-26T10:59:54.551Z,4.80
2023-04-26T11:00:49.087Z,4.31
2023-04-26T11:01:49.120Z,4.89
2023-04-26T11:02:51.884Z,4.61
2023-04-26T11:03:49.176Z,4.54
2023-04-26T11:04:49.081Z,4.70
2023-04-26T11:05:49.038Z,4.57
2023-04-26T11:06:49.122Z,4.76
2023-04-26T11:07:49.057Z,4.68
2023-04-26T11:08:49.071Z,4.97
2023-04-26T11:09:49.027Z,4.28
2023-04-26T11:10:49.081Z,4.24
2023-04-26T11:11:49.063Z,3.92
2023-04-26T11:12:49.056Z,4.03
2023-04-26T11:13:49.120Z,3.93
2023-04-26T11:14:49.052Z,4.13
2023-04-26T11:15:51.267Z,3.97
2023-04-26T11:16:49.075Z,4.72
2023-04-26T11:17:49.087Z,4.79
2023-04-26T11:18:49.150Z,3.93
2023-04-26T11:19:49.114Z,4.15
2023-04-26T11:20:49.085Z,3.91
2023-04-26T11:21:49.128Z,3.94
2023-04-26T11:24:49.118Z,3.98
2023-04-26T11:25:49.083Z,4.21
2023-04-26T11:26:49.148Z,4.45
2023-04-26T11:27:49.125Z,3.82
2023-04-26T11:28:49.105Z,4.21
2023-04-26T11:29:49.098Z,4.25
2023-04-26T11:30:49.103Z,4.07
2023-04-26T11:31:49.115Z,3.62
2023-04-26T11:32:49.155Z,3.51
2023-04-26T11:33:50.787Z,4.05
2023-04-26T11:34:49.143Z,4.46
2023-04-26T11:35:49.108Z,4.42
2023-04-26T11:36:49.099Z,4.43
2023-04-26T11:37:49.127Z,3.99
2023-04-26T11:38:49.106Z,3.69
2023-04-26T11:39:49.105Z,3.45
2023-04-26T11:40:49.156Z,4.03
2023-04-26T11:41:49.136Z,3.66
2023-04-26T11:42:49.113Z,3.79
2023-04-26T11:43:49.183Z,4.16
2023-04-26T11:44:49.109Z,4.02
2023-04-26T11:45:49.132Z,3.99
2023-04-26T11:46:49.211Z,3.91
2023-04-26T11:47:49.233Z,4.11
2023-04-26T11:48:49.151Z,4.17
2023-04-26T11:50:49.178Z,4.28
2023-04-26T11:51:49.144Z,3.90
2023-04-26T11:52:49.183Z,3.96
2023-04-26T11:53:49.194Z,3.77
2023-04-26T11:54:49.190Z,4.21
2023-04-26T11:57:49.177Z,3.62
2023-04-26T11:58:49.179Z,4.21
2023-04-26T12:01:49.228Z,4.21
2023-04-26T12:02:49.465Z,4.23
2023-04-26T12:03:49.291Z,4.03
2023-04-26T12:04:49.442Z,4.63
2023-04-26T12:05:49.188Z,3.85
2023-04-26T12:06:49.194Z,3.85
2023-04-26T12:07:49.192Z,4.28
2023-04-26T12:08:49.239Z,3.88
2023-04-26T12:10:49.179Z,3.91
2023-04-26T12:11:49.203Z,3.83
2023-04-26T12:12:49.203Z,3.74
2023-04-26T12:13:49.249Z,3.70
2023-04-26T12:14:49.216Z,4.38
2023-04-26T12:15:49.217Z,3.50
2023-04-26T12:16:49.247Z,3.77
2023-04-26T12:17:49.254Z,4.26
2023-04-26T12:18:49.260Z,3.58
2023-04-26T12:19:49.269Z,3.58
2023-04-26T12:21:49.270Z,3.47
2023-04-26T12:22:49.242Z,4.12
2023-04-26T12:23:49.213Z,3.70
2023-04-26T12:24:49.266Z,3.93
2023-04-26T12:25:49.220Z,4.06
2023-04-26T12:26:49.271Z,3.58
2023-04-26T12:27:49.247Z,3.86
2023-04-26T12:28:49.257Z,4.05
2023-04-26T12:29:49.275Z,3.20
2023-04-26T12:31:49.275Z,3.81
2023-04-26T12:32:49.280Z,3.33
2023-04-26T12:33:49.243Z,3.29
2023-04-26T12:34:49.290Z,3.43
2023-04-26T12:36:49.258Z,3.53
2023-04-26T12:37:49.292Z,3.22
2023-04-26T12:38:49.306Z,3.34
2023-04-26T12:39:49.344Z,3.45
2023-04-26T12:40:49.275Z,3.26
2023-04-26T12:42:49.261Z,3.42
2023-04-26T12:43:49.299Z,3.33
2023-04-26T12:44:49.318Z,3.56
2023-04-26T12:45:49.404Z,3.25
2023-04-26T12:46:49.386Z,3.11
2023-04-26T12:47:49.371Z,4.01
2023-04-26T12:48:49.288Z,3.25
2023-04-26T12:49:49.294Z,3.49
2023-04-26T12:50:51.147Z,3.20
2023-04-26T12:51:49.351Z,3.62
2023-04-26T12:52:49.314Z,3.59
2023-04-26T12:53:49.351Z,3.93
2023-04-26T12:54:49.295Z,3.43
2023-04-26T12:55:49.302Z,3.47
2023-04-26T12:56:49.352Z,3.46
2023-04-26T12:57:49.322Z,3.73
2023-04-26T12:58:49.370Z,3.52
2023-04-26T12:59:49.362Z,3.51
2023-04-26T13:00:49.338Z,3.73
2023-04-26T13:01:49.345Z,3.88
2023-04-26T13:02:49.435Z,3.86
2023-04-26T13:03:49.691Z,4.01
2023-04-26T13:04:49.592Z,4.14
2023-04-26T13:05:49.318Z,3.81
2023-04-26T13:06:49.365Z,4.15
2023-04-26T13:07:49.396Z,3.81
2023-04-26T13:08:49.386Z,4.29
2023-04-26T13:09:49.354Z,4.10
2023-04-26T13:10:49.362Z,3.70
2023-04-26T13:11:49.395Z,3.53
2023-04-26T13:12:49.383Z,4.29
2023-04-26T13:13:49.401Z,3.11
2023-04-26T13:14:49.388Z,3.26
2023-04-26T13:15:49.380Z,3.39
2023-04-26T13:16:49.404Z,2.92
2023-04-26T13:17:49.450Z,3.77
2023-04-26T13:18:49.394Z,3.45
2023-04-26T13:19:49.395Z,3.14
2023-04-26T13:20:49.426Z,3.13
2023-04-26T13:21:49.427Z,3.89
2023-04-26T13:22:49.422Z,3.41
2023-04-26T13:23:49.383Z,3.35
2023-04-26T13:25:49.443Z,3.79
2023-04-26T13:26:49.404Z,3.90
2023-04-26T13:27:49.433Z,3.42
2023-04-26T13:29:49.422Z,3.82
2023-04-26T13:30:49.408Z,3.40
2023-04-26T13:31:49.428Z,3.42
2023-04-26T13:32:49.526Z,3.93
2023-04-26T13:33:49.430Z,4.26
2023-04-26T13:34:49.449Z,4.11
2023-04-26T13:35:49.435Z,4.07
2023-04-26T13:36:49.438Z,4.71
2023-04-26T13:37:49.422Z,4.44
2023-04-26T13:38:49.430Z,4.30
2023-04-26T13:39:49.409Z,4.43
2023-04-26T13:40:49.456Z,3.58
2023-04-26T13:41:49.409Z,4.56
2023-04-26T13:42:49.449Z,4.57
2023-04-26T13:43:49.451Z,4.64
2023-04-26T13:44:49.425Z,4.26
2023-04-26T13:45:49.542Z,4.44
2023-04-26T13:46:49.509Z,4.42
2023-04-26T13:47:49.503Z,4.05
2023-04-26T13:48:49.464Z,4.40
2023-04-26T13:49:49.469Z,4.02
2023-04-26T13:50:49.466Z,4.25
2023-04-26T13:51:49.427Z,3.49
2023-04-26T13:52:49.480Z,4.39
2023-04-26T13:53:49.443Z,3.77
2023-04-26T13:54:49.485Z,4.13
2023-04-26T13:55:49.476Z,4.66
2023-04-26T13:56:49.502Z,4.28
2023-04-26T13:57:49.450Z,4.18
2023-04-26T13:58:49.488Z,4.60
2023-04-26T13:59:49.549Z,3.91
2023-04-26T14:00:49.485Z,3.63
2023-04-26T14:01:50.384Z,4.34
2023-04-26T14:02:49.711Z,3.94
2023-04-26T14:03:49.678Z,3.70
2023-04-26T14:04:49.859Z,3.61
2023-04-26T14:05:49.468Z,4.20
2023-04-26T14:06:49.501Z,4.54
2023-04-26T14:07:49.545Z,3.82
2023-04-26T14:09:49.580Z,3.61
2023-04-26T14:10:49.499Z,3.99
2023-04-26T14:12:00.515Z,3.71
2023-04-26T14:12:49.572Z,3.71
2023-04-26T14:13:49.496Z,3.58
2023-04-26T14:14:49.481Z,3.82
2023-04-26T14:15:49.591Z,3.91
2023-04-26T14:16:49.535Z,3.85
2023-04-26T14:17:49.520Z,3.85
2023-04-26T14:18:49.512Z,4.38
2023-04-26T14:19:49.547Z,3.55
2023-04-26T14:20:49.575Z,3.48
2023-04-26T14:21:49.520Z,3.99
2023-04-26T14:22:49.516Z,4.19
2023-04-26T14:24:49.560Z,3.48
2023-04-26T14:25:49.566Z,3.66
2023-04-26T14:26:49.555Z,4.10
2023-04-26T14:27:50.021Z,3.70
2023-04-26T14:28:49.569Z,3.59
2023-04-26T14:29:49.535Z,4.75
2023-04-26T14:30:49.567Z,4.45
2023-04-26T14:31:49.634Z,3.88
2023-04-26T14:32:49.620Z,4.50
2023-04-26T14:33:49.610Z,4.52
2023-04-26T14:34:49.580Z,4.33
2023-04-26T14:35:49.609Z,4.27
2023-04-26T14:36:49.608Z,4.11
2023-04-26T14:37:49.589Z,4.22